Harmony, NC (28634)

10:51 PM EDT on April 25, 2015 (GMT -0400)
Cool Springs | | Change Station
CLOSE
Current Station
Personal Weather Station
Location: Statesville, NC
Elevation: 846 ft
Nearby Weather Stations

Elev 846 ft 35.85 °N, 80.80 °W | Updated 34 seconds ago

Overcast
Overcast
47.3 °F
Feels Like 47 °F
N
0.0
Wind Variable Wind from NE
Gusts 4.0 mph

Today
High -- | Low -- °F
--% Chance of Precip.
Yesterday
High -- | Low -- °F
Precip. -- in
6:37 AM 8:04 PM
Waxing Crescent, 51% visible
Pressure 29.65 in
Visibility 2.5 miles
Clouds Overcast 200 ft
Windchill 47 °F
Dew Point 46 °F
Humidity 96%
Rainfall 0.15 in
Snow Depth Not available.
UV 0 out of 12
Pollen 7.00 out of 12
Air Quality Not available.
Flu Activity Sporadic
METAR KSVH 260235Z AUTO 04006KT 2 1/2SM BR OVC002 08/08 A2965 RMK AO2 T00810080

More Conditions Fewer Conditions

Pressure 29.65 in
Visibility 2.5 miles
Clouds Overcast 200 ft
Windchill 47 °F
Dew Point 46 °F
Humidity 96%
Rainfall 0.15 in
Snow Depth Not available.
UV 0 out of 12
Pollen 7.00 out of 12
Air Quality Not available.
Flu Activity Sporadic
METAR KSVH 260235Z AUTO 04006KT 2 1/2SM BR OVC002 08/08 A2965 RMK AO2 T00810080

More Conditions Fewer Conditions

10-Day Weather Forecast

Almanac

Astronomy

Apr. 25, 2015 Rise Set
Actual Time
Civil Twilight
Nautical Twilight
Astronomical Twilight
Moon
Length of Visible Light
Length of Day
Tomorrow will be .
, % of the Moon is Illuminated

Today's Extremes

State Highs State Lows

Community

WunderPhotos

Upload Photos

1,816,909 photos uploaded!

WunderBlogs® & News

Nearby

Air Quality

  Air Quality AQ Index Pollutant
Not available.

Snow Depth

Station Depth Elevation

Earthquake Activity

City Distance Mag. Time & Date
Minimum magnitude displayed is 2.5.

Coastal Water Temperatures

Place Temperature

Stations

Nearby Weather Stations

Station Location Temp. Windchill Dew Point Humidity Wind Precip. Elev Updated Type